LWS - Lewiston/Nez Perce County

Pirep is a free, collaborative database of all public and private airports located within the United States. All pilots are welcome to contribute, edit, and improve any airport they have local knowledge about, no registration required.
Uploaded photos will be licensed under a CC BY-SA 4.0 license. Please only upload photos you have the rights to use.
Tags
Public
Golfing
Food
METAR / TAF
Edit Tags
Camping
Lodging
Car Rental
Bicycles
Swimming
Fishing
Hot Springs
Museum
Flying Clubs
Airpark
Upcoming Events
No upcoming events. Is anything happening here soon?
*
*
*

Where exactly on/near the airport is this event taking place?

Is there a webpage with more information for this event?

Who should be contacted for more information?

What is this event all about?

Repeat every
Description
Last updated: 2023-07-03 00:20:00 PDT
Transient Parking
Fuel Location
Landing & Tie-down Fees
Crew Car Availability
Flying Clubs
WiFi Access
Airport Statistics
Location: Lewiston, ID
Elevation: 1,442ft
Sectional: Seattle
Activation date: Jul 1944
Fuel: 100, 100LL, A (prices)
Runway 08/26: 6,511ft
Runway 12/30: 5,003ft
Access: Open to the public
Current Weather — VFR
  • Weather data is strictly informational and not for flight planning purposes.
  • METAR
    2024-06-17 18:56:00 PDT
    Ceiling Wind Temperature Dewpoint Weather Visbility
    11,000ft 290° @ 9kt, gusts 19kt 64°F 35°F N/A 10SM
    Clouds: Overcast @ 11,000ft
    Raw: KLWS 180156Z AUTO 29009G19KT 10SM OVC110 18/02 A2987 RMK AO2 SLP114 T01830017 $
  • TAF
    2024-06-17 17:00:00 PDT – 2024-06-17 19:00:00 PDT
    Ceiling Wind Weather Visbility
    7,000ft 300° @ 13kt, gusts 23kt N/A 6SM
    Clouds: Broken @ 7,000ft
    Raw: KLWS 172320Z 1800/1824 30013G23KT P6SM BKN070 FM180200 25008KT P6SM BKN070 TEMPO 1802/1804 6SM -SHRA BKN060 FM180400 21007KT P6SM BKN060 PROB30 1804/1808 -SHRA FM181100 20005KT P6SM SCT060
  • TAF
    2024-06-17 19:00:00 PDT – 2024-06-17 21:00:00 PDT
    Ceiling Wind Weather Visbility
    7,000ft 250° @ 8kt N/A 6SM
    Clouds: Broken @ 7,000ft
    Raw: KLWS 172320Z 1800/1824 30013G23KT P6SM BKN070 FM180200 25008KT P6SM BKN070 TEMPO 1802/1804 6SM -SHRA BKN060 FM180400 21007KT P6SM BKN060 PROB30 1804/1808 -SHRA FM181100 20005KT P6SM SCT060
  • TAF
    2024-06-17 19:00:00 PDT – 2024-06-17 21:00:00 PDT
    Ceiling Wind Weather Visbility
    6,000ft ° @ kt Light rain showers 6SM
    Clouds: Broken @ 6,000ft
    Raw: KLWS 172320Z 1800/1824 30013G23KT P6SM BKN070 FM180200 25008KT P6SM BKN070 TEMPO 1802/1804 6SM -SHRA BKN060 FM180400 21007KT P6SM BKN060 PROB30 1804/1808 -SHRA FM181100 20005KT P6SM SCT060
  • TAF
    2024-06-17 21:00:00 PDT – 2024-06-18 04:00:00 PDT
    Ceiling Wind Weather Visbility
    6,000ft 210° @ 7kt N/A 6SM
    Clouds: Broken @ 6,000ft
    Raw: KLWS 172320Z 1800/1824 30013G23KT P6SM BKN070 FM180200 25008KT P6SM BKN070 TEMPO 1802/1804 6SM -SHRA BKN060 FM180400 21007KT P6SM BKN060 PROB30 1804/1808 -SHRA FM181100 20005KT P6SM SCT060
  • TAF
    2024-06-17 21:00:00 PDT – 2024-06-18 01:00:00 PDT
    Ceiling Wind Weather Visbility
    Sky clear ° @ kt Light rain showers SM
    Raw: KLWS 172320Z 1800/1824 30013G23KT P6SM BKN070 FM180200 25008KT P6SM BKN070 TEMPO 1802/1804 6SM -SHRA BKN060 FM180400 21007KT P6SM BKN060 PROB30 1804/1808 -SHRA FM181100 20005KT P6SM SCT060
  • TAF
    2024-06-18 04:00:00 PDT – 2024-06-18 17:00:00 PDT
    Ceiling Wind Weather Visbility
    Sky clear 200° @ 5kt N/A 6SM
    Clouds: Scattered @ 6,000ft
    Raw: KLWS 172320Z 1800/1824 30013G23KT P6SM BKN070 FM180200 25008KT P6SM BKN070 TEMPO 1802/1804 6SM -SHRA BKN060 FM180400 21007KT P6SM BKN060 PROB30 1804/1808 -SHRA FM181100 20005KT P6SM SCT060
Click/tap to add an annotation marker to the map
Airport Webcams
No webcams added yet.
Direct links to live image URLs will be displayed inline on this page. URLs to separate webpages will be linked to.
URL:
Direct links to live image URLs will be displayed inline on this page. URLs to separate webpages will be linked to.
URL:
Remarks
  • Clsd to unsked acr opns with more than 30 psgr seats excp ppr call amgr 208-790-1050.
  • (e94) lawrs
  • Frequent no radio agricultural acft activity in vicinity of arpt.
  • For cd if una to ctc on fss freq, ctc seattle artcc at 253-351-3694.
  • Lws apn e hngr ramp clsd to acrs exc ga and acft wingspan less than 58 ft.
Comments
Leave a comment What was your experience like at this airport?